Time;durP1;ratioP1;P1;durP2;ratioP2;P2;SDS_P1;SDS_P2;PMS_P1;PMS_P2;Temp;Humidity;BMP_temperature;BMP_pressure;BME280_temperature;BME280_humidity;BME280_pressure;Samples;Min_cycle;Max_cycle;Signal;HPM_P1;HPM_P2
2023/09/23 00:01:05;;;;;;;14.10;7.90;;;;;;;21.40;58.19;100702.98;105625;1259;64148;-53
2023/09/23 00:03:33;;;;;;;10.00;7.50;;;;;;;21.42;58.02;100699.55;105539;1258;64297;-54
2023/09/23 00:06:03;;;;;;;10.10;7.80;;;;;;;21.41;57.95;100700.84;105599;1266;59653;-54
2023/09/23 00:08:31;;;;;;;10.60;8.20;;;;;;;21.39;57.89;100700.62;105621;1254;59747;-54
2023/09/23 00:10:59;;;;;;;12.30;8.60;;;;;;;21.39;57.82;100699.02;105153;1260;64168;-54
2023/09/23 00:13:28;;;;;;;11.50;8.30;;;;;;;21.39;57.55;100700.90;105103;1259;61337;-54
2023/09/23 00:15:56;;;;;;;12.90;8.80;;;;;;;21.36;57.43;100698.31;105667;1262;62494;-56
2023/09/23 00:18:23;;;;;;;13.10;8.50;;;;;;;21.32;57.35;100699.70;105825;1259;59525;-54
2023/09/23 00:20:51;;;;;;;13.50;8.90;;;;;;;21.29;57.44;100704.20;105266;1254;59792;-52
2023/09/23 00:23:20;;;;;;;13.70;7.70;;;;;;;21.27;57.38;100706.95;105257;1257;64123;-53
2023/09/23 00:25:47;;;;;;;14.60;7.80;;;;;;;21.27;57.44;100705.57;105561;1256;68758;-54
2023/09/23 00:28:15;;;;;;;11.60;8.50;;;;;;;21.27;57.48;100703.89;105427;1254;64099;-53
2023/09/23 00:30:45;;;;;;;15.00;9.00;;;;;;;21.26;57.18;100704.89;105328;1259;59641;-54
2023/09/23 00:33:16;;;;;;;15.50;8.00;;;;;;;21.24;56.85;100703.84;105194;1256;59523;-53
2023/09/23 00:35:45;;;;;;;9.90;7.90;;;;;;;21.24;56.80;100708.20;105307;1254;62825;-53
2023/09/23 00:38:12;;;;;;;11.30;8.60;;;;;;;21.23;56.59;100712.42;105205;1258;60132;-53
2023/09/23 00:40:41;;;;;;;13.90;7.90;;;;;;;21.20;56.45;100710.55;105443;1258;62510;-53
2023/09/23 00:43:09;;;;;;;10.70;7.70;;;;;;;21.18;56.36;100707.63;105389;1256;60572;-53
2023/09/23 00:45:37;;;;;;;12.10;8.20;;;;;;;21.16;56.28;100710.77;105384;1260;60560;-53
2023/09/23 00:48:08;;;;;;;12.70;7.90;;;;;;;21.15;56.31;100709.81;105534;1258;64906;-53
2023/09/23 00:50:36;;;;;;;12.50;7.60;;;;;;;21.11;56.42;100703.79;105422;1258;61900;-54
2023/09/23 00:53:04;;;;;;;14.00;8.90;;;;;;;21.08;56.58;100701.84;105342;1255;63896;-54
2023/09/23 00:55:39;;;;;;;14.60;7.60;;;;;;;21.10;56.52;100702.40;106553;1259;60543;-53
2023/09/23 00:58:07;;;;;;;11.70;7.60;;;;;;;21.13;56.25;100703.73;105674;1257;60377;-53
2023/09/23 01:00:35;;;;;;;12.20;7.50;;;;;;;21.14;56.07;100703.41;105199;1255;63864;-53
2023/09/23 01:03:03;;;;;;;11.60;8.00;;;;;;;21.14;55.84;100701.11;105216;1260;63105;-52
2023/09/23 01:05:33;;;;;;;12.40;7.80;;;;;;;21.14;56.04;100702.52;105722;1259;63712;-54
2023/09/23 01:08:11;;;;;;;11.50;7.90;;;;;;;21.15;55.72;100703.73;105809;1259;60586;-54
2023/09/23 01:10:39;;;;;;;11.30;8.20;;;;;;;21.13;55.61;100702.83;105482;1259;60517;-54
2023/09/23 01:13:08;;;;;;;10.70;8.30;;;;;;;21.11;55.75;100705.71;105178;1258;64860;-54
2023/09/23 01:15:40;;;;;;;12.50;8.30;;;;;;;21.10;55.65;100705.40;105341;1259;61450;-53
2023/09/23 01:18:08;;;;;;;11.20;8.30;;;;;;;21.08;55.76;100704.35;105389;1259;62448;-53
2023/09/23 01:20:37;;;;;;;10.00;7.30;;;;;;;21.07;56.03;100707.05;105431;1258;61267;-54
2023/09/23 01:23:05;;;;;;;10.40;6.50;;;;;;;21.08;56.33;100709.38;105571;1258;60383;-58
2023/09/23 01:25:36;;;;;;;14.20;7.40;;;;;;;21.11;56.41;100712.63;105706;1257;65031;-53
2023/09/23 01:28:08;;;;;;;11.50;7.60;;;;;;;21.12;56.35;100712.67;105552;1260;61337;-55
2023/09/23 01:30:36;;;;;;;14.20;7.60;;;;;;;21.11;56.45;100717.44;105567;1260;65306;-55
2023/09/23 01:33:07;;;;;;;12.10;7.50;;;;;;;21.10;56.33;100722.83;105242;1260;60446;-54
2023/09/23 01:35:35;;;;;;;14.10;8.50;;;;;;;21.09;56.01;100723.02;105619;1257;60538;-57
2023/09/23 01:38:06;;;;;;;11.70;8.10;;;;;;;21.05;55.73;100726.29;105286;1254;64908;-55
2023/09/23 01:40:36;;;;;;;10.70;7.40;;;;;;;21.01;55.45;100731.28;105631;1255;61411;-57
2023/09/23 01:43:04;;;;;;;12.30;7.80;;;;;;;20.97;55.51;100732.42;105590;1254;63824;-55
2023/09/23 01:45:31;;;;;;;14.10;8.40;;;;;;;20.93;55.23;100735.41;105278;1254;60540;-56
2023/09/23 01:47:59;;;;;;;13.40;8.40;;;;;;;20.88;55.51;100738.54;105293;1260;60644;-55
2023/09/23 01:50:27;;;;;;;12.70;7.60;;;;;;;20.82;55.53;100735.25;105731;1254;65610;-55
2023/09/23 01:53:00;;;;;;;15.20;7.90;;;;;;;20.76;55.66;100741.31;105872;1258;61917;-56
2023/09/23 01:55:28;;;;;;;13.30;7.40;;;;;;;20.69;55.88;100741.77;105947;1258;62477;-54
2023/09/23 01:57:56;;;;;;;12.90;6.60;;;;;;;20.66;56.30;100740.04;105180;1259;60473;-55
2023/09/23 02:00:25;;;;;;;9.10;6.80;;;;;;;20.65;56.32;100738.74;106691;1257;60485;-54
2023/09/23 02:02:57;;;;;;;10.20;7.30;;;;;;;20.63;56.54;100741.41;106877;1253;63733;-57
2023/09/23 02:05:28;;;;;;;10.20;7.40;;;;;;;20.60;56.57;100742.63;105715;1255;61503;-55
2023/09/23 02:07:56;;;;;;;19.70;8.00;;;;;;;20.56;56.41;100742.89;105207;1254;64328;-57
2023/09/23 02:10:26;;;;;;;14.60;8.20;;;;;;;20.52;56.06;100748.57;105256;1258;60568;-57
2023/09/23 02:12:55;;;;;;;10.90;7.40;;;;;;;20.49;55.97;100749.80;105854;1254;60487;-57
2023/09/23 02:15:22;;;;;;;11.90;7.30;;;;;;;20.46;55.85;100749.59;105251;1256;65398;-58
2023/09/23 02:17:50;;;;;;;10.10;7.40;;;;;;;20.40;55.39;100750.94;105138;1254;62052;-54
2023/09/23 02:20:19;;;;;;;10.40;7.60;;;;;;;20.34;55.25;100748.48;105260;1266;63712;-57
2023/09/23 02:22:50;;;;;;;12.20;7.90;;;;;;;20.27;55.38;100743.62;105279;1258;60455;-54
2023/09/23 02:25:18;;;;;;;15.90;8.00;;;;;;;20.20;55.39;100749.34;105439;1257;60913;-53
2023/09/23 02:27:46;;;;;;;10.10;7.10;;;;;;;20.15;55.74;100748.03;105206;1254;63649;-54
2023/09/23 02:30:14;;;;;;;13.00;7.70;;;;;;;20.12;56.05;100747.95;105460;1259;61285;-50
2023/09/23 02:32:43;;;;;;;11.50;6.80;;;;;;;20.11;56.40;100751.25;105407;1258;62453;-55
2023/09/23 02:35:12;;;;;;;9.90;7.60;;;;;;;20.08;56.51;100751.12;105114;1258;61380;-57
2023/09/23 02:37:40;;;;;;;10.80;7.70;;;;;;;20.04;56.99;100751.62;105410;1254;60550;-56
2023/09/23 02:40:12;;;;;;;9.80;6.90;;;;;;;20.00;57.30;100751.98;105154;1253;64905;-56
2023/09/23 02:42:41;;;;;;;10.90;7.90;;;;;;;19.97;57.57;100749.20;105605;1254;61403;-56
2023/09/23 02:45:09;;;;;;;13.50;9.20;;;;;;;19.91;57.83;100753.20;105155;1254;62418;-52
2023/09/23 02:47:37;;;;;;;10.60;7.50;;;;;;;19.86;58.14;100758.81;105580;1257;60503;-52
2023/09/23 02:50:12;;;;;;;12.00;7.10;;;;;;;19.84;58.30;100764.13;105654;1257;60490;-54
2023/09/23 02:52:41;;;;;;;11.90;8.20;;;;;;;19.84;58.38;100766.23;105237;1257;64884;-56
2023/09/23 02:55:14;;;;;;;11.10;8.00;;;;;;;19.81;58.48;100769.45;105328;1254;61355;-57
2023/09/23 02:57:46;;;;;;;12.90;8.30;;;;;;;19.76;58.50;100772.55;105417;1258;63730;-57
2023/09/23 03:00:17;;;;;;;10.70;7.80;;;;;;;19.71;58.48;100777.23;105261;1254;60587;-59
2023/09/23 03:02:56;;;;;;;12.10;8.30;;;;;;;19.64;58.56;100779.00;105496;1254;60375;-59
2023/09/23 03:05:27;;;;;;;11.10;8.10;;;;;;;19.59;58.76;100781.63;105263;1254;63637;-53
2023/09/23 03:07:57;;;;;;;13.00;8.10;;;;;;;19.53;58.78;100780.84;105246;1257;60473;-52
2023/09/23 03:10:39;;;;;;;13.60;6.90;;;;;;;19.50;58.54;100780.79;105865;1255;63822;-57
2023/09/23 03:13:11;;;;;;;12.60;7.90;;;;;;;19.51;58.46;100781.58;105448;1253;60540;-56
2023/09/23 03:15:44;;;;;;;13.80;7.80;;;;;;;19.48;58.31;100778.81;105586;1257;60448;-55
2023/09/23 03:18:17;;;;;;;12.50;7.70;;;;;;;19.44;58.14;100779.11;105384;1257;64957;-57
2023/09/23 03:20:45;;;;;;;14.50;8.40;;;;;;;19.40;57.75;100779.75;105249;1261;60514;-56
2023/09/23 03:23:13;;;;;;;18.00;8.00;;;;;;;19.35;57.31;100773.02;105198;1254;62467;-55
2023/09/23 03:25:47;;;;;;;14.90;8.00;;;;;;;19.31;57.10;100769.70;105276;1259;60424;-56
2023/09/23 03:28:16;;;;;;;;;;;;;;;19.28;56.83;100772.37;105389;1260;60414;-58
2023/09/23 03:30:47;;;;;;;13.10;8.60;;;;;;;19.24;56.79;100767.31;105345;1260;64880;-48
2023/09/23 03:33:18;;;;;;;12.80;8.10;;;;;;;19.20;56.79;100769.03;105425;1260;60566;-47
2023/09/23 03:35:47;;;;;;;19.70;8.60;;;;;;;19.16;56.70;100773.86;105343;1254;65684;-48
2023/09/23 03:38:15;;;;;;;14.80;7.70;;;;;;;19.11;56.64;100772.77;105305;1257;60469;-54
2023/09/23 03:40:54;;;;;;;16.40;8.20;;;;;;;19.08;56.87;100769.94;105423;1257;60659;-53
2023/09/23 03:43:22;;;;;;;9.70;7.30;;;;;;;19.08;56.63;100769.90;105156;1255;64870;-53
2023/09/23 03:45:51;;;;;;;10.10;7.50;;;;;;;19.10;56.53;100766.66;105303;1254;61388;-53
2023/09/23 03:48:19;;;;;;;12.00;7.50;;;;;;;19.09;56.75;100776.00;105359;1254;63844;-54
2023/09/23 03:50:52;;;;;;;12.30;7.60;;;;;;;19.07;56.81;100775.52;105163;1258;60326;-55
2023/09/23 03:53:23;;;;;;;12.80;7.90;;;;;;;19.05;56.90;100774.33;106046;1254;60854;-54
2023/09/23 03:55:53;;;;;;;12.90;8.50;;;;;;;19.02;57.06;100777.11;105379;1258;63779;-54
2023/09/23 03:58:21;;;;;;;14.10;8.20;;;;;;;19.00;56.90;100777.06;105349;1254;61960;-54
2023/09/23 04:00:49;;;;;;;12.40;8.30;;;;;;;18.98;56.76;100783.02;105938;1258;63752;-54
2023/09/23 04:03:17;;;;;;;11.30;8.20;;;;;;;18.94;56.57;100780.66;105389;1257;60439;-55
2023/09/23 04:05:57;;;;;;;14.70;8.60;;;;;;;18.91;56.83;100781.03;105369;1257;60454;-55
2023/09/23 04:08:26;;;;;;;12.40;8.30;;;;;;;18.88;56.89;100784.70;105870;1255;64870;-53
2023/09/23 04:10:54;;;;;;;13.90;8.40;;;;;;;18.87;57.01;100787.93;105994;1255;60574;-53
2023/09/23 04:13:22;;;;;;;10.70;7.20;;;;;;;18.88;56.95;100790.96;105903;1254;64233;-54
2023/09/23 04:15:50;;;;;;;20.30;8.40;;;;;;;18.93;57.01;100790.73;105290;1259;60563;-55
2023/09/23 04:18:18;;;;;;;13.40;8.20;;;;;;;18.97;56.96;100797.95;105236;1257;60364;-54
2023/09/23 04:20:48;;;;;;;11.80;7.70;;;;;;;18.99;56.98;100799.56;105419;1254;63650;-53
2023/09/23 04:23:16;;;;;;;11.50;7.80;;;;;;;19.00;56.90;100798.21;105305;1257;60309;-53
2023/09/23 04:25:44;;;;;;;19.50;9.60;;;;;;;19.02;56.93;100796.85;105150;1254;64064;-54
2023/09/23 04:28:11;;;;;;;13.50;8.10;;;;;;;19.06;56.99;100793.76;105271;1260;60563;-51
2023/09/23 04:30:39;;;;;;;14.80;8.40;;;;;;;19.09;57.39;100798.58;105173;1254;60531;-54
2023/09/23 04:33:07;;;;;;;12.50;7.60;;;;;;;19.11;57.48;100798.91;105260;1254;64915;-54
2023/09/23 04:35:35;;;;;;;16.90;7.30;;;;;;;19.18;57.80;100801.96;105031;1260;60354;-62
2023/09/23 04:38:03;;;;;;;10.60;7.10;;;;;;;19.25;58.15;100798.09;105635;1254;63724;-55
2023/09/23 04:40:31;;;;;;;12.20;8.50;;;;;;;19.36;58.47;100805.13;105179;1259;60533;-61
2023/09/23 04:43:00;;;;;;;13.50;9.20;;;;;;;19.43;58.36;100802.48;105242;1258;60449;-51
2023/09/23 04:45:27;;;;;;;12.30;8.30;;;;;;;19.49;58.27;100805.64;105700;1261;64917;-51
2023/09/23 04:47:55;;;;;;;13.70;8.20;;;;;;;19.54;58.55;100807.80;105105;1255;61374;-50
2023/09/23 04:50:24;;;;;;;13.70;9.10;;;;;;;19.57;58.42;100808.82;105916;1258;64262;-51
2023/09/23 04:52:52;;;;;;;13.90;9.00;;;;;;;19.61;58.59;100808.22;105747;1254;61731;-52
2023/09/23 04:55:20;;;;;;;14.60;9.20;;;;;;;19.64;58.64;100814.80;105023;1260;60686;-60
2023/09/23 04:57:48;;;;;;;11.90;8.60;;;;;;;19.67;58.52;100820.37;105355;1258;64950;-59
2023/09/23 05:00:19;;;;;;;13.00;8.60;;;;;;;19.75;58.41;100818.77;105264;1257;70589;-60
2023/09/23 05:02:50;;;;;;;16.20;9.20;;;;;;;19.85;58.41;100817.10;105212;1254;63587;-60
2023/09/23 05:05:18;;;;;;;13.80;9.10;;;;;;;19.91;58.06;100817.05;105137;1254;63935;-63
2023/09/23 05:07:46;;;;;;;11.80;8.70;;;;;;;19.94;58.06;100820.97;105231;1254;60451;-60
2023/09/23 05:10:14;;;;;;;13.30;9.40;;;;;;;19.98;57.87;100824.52;105230;1257;65709;-60
2023/09/23 05:12:43;;;;;;;14.80;9.20;;;;;;;20.04;57.65;100828.37;105131;1253;72619;-61
2023/09/23 05:15:14;;;;;;;14.10;10.30;;;;;;;20.07;57.47;100828.92;105440;1257;62507;-61
2023/09/23 05:17:45;;;;;;;13.00;9.00;;;;;;;20.09;57.45;100830.42;105119;1254;60779;-61
2023/09/23 05:20:19;;;;;;;13.30;9.50;;;;;;;20.12;57.59;100835.48;105309;1257;60460;-60
2023/09/23 05:22:48;;;;;;;16.50;8.70;;;;;;;20.18;57.53;100836.17;105273;1258;65643;-62
2023/09/23 05:25:17;;;;;;;13.80;9.40;;;;;;;20.26;57.40;100835.77;105169;1259;61346;-63
2023/09/23 05:27:45;;;;;;;12.00;9.00;;;;;;;20.33;57.36;100834.20;105112;1254;64746;-63
2023/09/23 05:30:12;;;;;;;14.50;9.30;;;;;;;20.38;57.31;100836.10;105213;1254;60652;-59
2023/09/23 05:32:43;;;;;;;12.80;9.00;;;;;;;20.42;57.08;100839.35;105187;1253;60474;-60
2023/09/23 05:35:11;;;;;;;16.90;8.90;;;;;;;20.46;56.71;100841.67;106392;1253;64847;-60
2023/09/23 05:37:39;;;;;;;21.30;9.60;;;;;;;20.50;56.82;100841.85;105221;1253;60558;-59
2023/09/23 05:40:51;;;;;;;15.40;8.90;;;;;;;20.51;56.93;100845.95;105473;1253;64229;-58
2023/09/23 05:42:59;;;;;;;14.00;8.90;;;;;;;20.54;56.79;100847.16;105312;1259;60460;-58
2023/09/23 05:45:27;;;;;;;14.70;9.20;;;;;;;20.62;56.67;100852.55;105098;1259;60445;-60
2023/09/23 05:47:55;;;;;;;15.80;9.00;;;;;;;20.72;56.44;100854.86;105928;1258;67402;-60
2023/09/23 05:50:23;;;;;;;15.30;9.30;;;;;;;20.80;56.55;100858.05;105715;1254;61364;-60
2023/09/23 05:52:52;;;;;;;14.10;9.20;;;;;;;20.84;56.42;100855.20;105262;1257;63715;-58
2023/09/23 05:55:20;;;;;;;16.40;9.70;;;;;;;20.87;56.17;100847.86;105100;1256;60418;-59
2023/09/23 05:57:49;;;;;;;15.20;9.80;;;;;;;20.90;56.13;100845.73;105121;1258;60339;-59
2023/09/23 06:00:17;;;;;;;17.30;9.70;;;;;;;20.93;56.19;100849.31;105134;1253;64970;-58
2023/09/23 06:02:45;;;;;;;14.00;9.10;;;;;;;20.97;56.13;100850.16;105105;1258;60391;-59
2023/09/23 06:05:14;;;;;;;15.60;8.80;;;;;;;21.01;55.90;100852.67;105177;1254;62556;-57
2023/09/23 06:07:42;;;;;;;13.70;8.70;;;;;;;21.05;56.09;100857.59;106981;1254;60677;-59
2023/09/23 06:10:10;;;;;;;13.90;7.90;;;;;;;21.12;55.87;100857.00;105368;1258;60440;-58
2023/09/23 06:12:39;;;;;;;12.30;8.80;;;;;;;21.20;55.83;100863.07;105417;1253;65349;-57
2023/09/23 06:15:08;;;;;;;13.70;8.40;;;;;;;21.28;55.84;100864.52;105158;1254;61330;-58
2023/09/23 06:17:35;;;;;;;13.60;9.20;;;;;;;21.34;55.96;100869.34;105578;1254;64281;-59
2023/09/23 06:20:05;;;;;;;16.10;9.80;;;;;;;21.40;56.03;100870.39;105226;1254;62634;-58
2023/09/23 06:22:34;;;;;;;15.20;9.70;;;;;;;21.46;56.05;100871.12;105685;1254;60445;-63
2023/09/23 06:25:04;;;;;;;13.90;9.30;;;;;;;21.52;55.88;100872.82;105770;1254;65478;-63
2023/09/23 06:27:33;;;;;;;14.50;8.70;;;;;;;21.56;55.71;100870.70;105600;1260;60440;-60
2023/09/23 06:30:02;;;;;;;15.60;8.90;;;;;;;21.61;55.46;100865.09;106458;1256;73213;-61
2023/09/23 06:32:34;;;;;;;12.00;8.10;;;;;;;21.69;54.88;100870.75;105569;1258;60550;-61
2023/09/23 06:35:02;;;;;;;15.10;8.10;;;;;;;21.78;54.53;100870.76;106452;1258;60361;-61
2023/09/23 06:37:29;;;;;;;18.20;9.50;;;;;;;21.85;54.31;100874.40;105628;1254;63885;-62
2023/09/23 06:39:57;;;;;;;19.10;9.50;;;;;;;21.91;54.10;100874.92;105254;1253;62583;-61
2023/09/23 06:42:24;;;;;;;14.90;8.80;;;;;;;21.95;53.97;100873.17;105183;1253;63960;-62
2023/09/23 06:44:52;;;;;;;19.80;9.70;;;;;;;22.00;54.11;100871.88;105239;1254;60486;-61
2023/09/23 06:47:20;;;;;;;16.80;9.40;;;;;;;22.05;54.13;100872.25;105247;1254;60720;-66
2023/09/23 06:49:48;;;;;;;14.00;9.20;;;;;;;22.10;54.03;100871.11;106253;1253;64941;-66
2023/09/23 06:52:15;;;;;;;12.40;9.20;;;;;;;22.15;53.95;100876.67;106000;1254;61405;-64
2023/09/23 06:54:44;;;;;;;12.90;9.10;;;;;;;22.19;54.10;100879.55;105088;1258;62556;-62
2023/09/23 06:57:12;;;;;;;13.90;9.10;;;;;;;22.24;53.93;100879.89;105447;1253;60534;-61
2023/09/23 06:59:39;;;;;;;11.10;8.90;;;;;;;22.30;54.12;100878.46;106128;1259;60394;-62
2023/09/23 07:02:07;;;;;;;13.10;9.40;;;;;;;22.41;54.23;100878.73;105727;1257;63627;-62
2023/09/23 07:04:36;;;;;;;18.60;9.10;;;;;;;22.52;54.48;100875.79;105189;1254;61667;-61
2023/09/23 07:07:03;;;;;;;12.00;9.00;;;;;;;22.59;54.37;100873.77;105304;1257;63741;-58
2023/09/23 07:09:31;;;;;;;14.40;8.50;;;;;;;22.66;54.36;100875.78;105178;1257;60565;-58
2023/09/23 07:11:59;;;;;;;15.10;9.30;;;;;;;22.72;54.55;100875.93;106303;1254;60550;-57
2023/09/23 07:14:26;;;;;;;13.20;9.80;;;;;;;22.79;54.58;100880.79;104899;1259;63625;-56
2023/09/23 07:16:55;;;;;;;11.90;9.50;;;;;;;22.87;54.72;100881.10;105793;1253;61596;-57
2023/09/23 07:19:23;;;;;;;14.50;9.00;;;;;;;22.94;54.83;100885.67;105682;1257;62615;-58
2023/09/23 07:21:50;;;;;;;15.40;8.40;;;;;;;23.06;54.26;100883.69;105160;1254;60547;-56
2023/09/23 07:24:18;;;;;;;13.40;9.00;;;;;;;23.18;54.14;100880.91;105283;1253;60554;-59
2023/09/23 07:26:45;;;;;;;14.20;8.60;;;;;;;23.30;53.94;100882.01;105222;1253;64986;-57
2023/09/23 07:29:13;;;;;;;14.00;9.00;;;;;;;23.39;53.20;100882.77;105296;1253;61833;-56
2023/09/23 07:31:40;;;;;;;10.00;7.90;;;;;;;23.48;53.00;100882.13;105408;1253;63755;-56
2023/09/23 07:34:08;;;;;;;15.90;7.90;;;;;;;23.55;52.60;100875.70;105241;1254;60458;-56
2023/09/23 07:36:35;;;;;;;13.60;7.90;;;;;;;23.63;52.28;100877.93;105320;1254;60374;-57
2023/09/23 07:39:03;;;;;;;17.20;8.10;;;;;;;23.69;51.84;100884.21;105303;1257;64928;-57
2023/09/23 07:41:31;;;;;;;16.70;8.40;;;;;;;23.72;51.42;100884.35;105640;1258;60421;-59
2023/09/23 07:43:59;;;;;;;14.60;8.60;;;;;;;23.76;51.47;100883.06;105301;1253;63672;-56
2023/09/23 07:46:26;;;;;;;11.50;7.60;;;;;;;23.81;51.26;100881.45;105834;1254;60537;-58
2023/09/23 07:48:54;;;;;;;11.70;8.10;;;;;;;23.85;51.20;100883.05;105128;1257;60483;-58
2023/09/23 07:51:21;;;;;;;14.30;8.00;;;;;;;23.89;51.20;100880.89;105226;1259;64957;-59
2023/09/23 07:53:52;;;;;;;13.10;8.10;;;;;;;23.95;51.16;100881.05;105307;1257;60457;-58
2023/09/23 07:56:20;;;;;;;10.90;7.90;;;;;;;24.01;51.07;100877.94;105332;1256;62667;-59
2023/09/23 07:58:47;;;;;;;12.60;7.90;;;;;;;24.07;50.90;100875.57;105270;1253;60569;-59
2023/09/23 08:01:16;;;;;;;13.90;7.90;;;;;;;24.13;50.95;100875.88;105349;1253;60533;-59
2023/09/23 08:03:43;;;;;;;11.70;7.80;;;;;;;24.20;51.16;100873.18;105351;1254;63686;-60
2023/09/23 08:06:12;;;;;;;15.00;8.50;;;;;;;24.28;51.28;100871.42;105291;1253;60449;-58
2023/09/23 08:08:39;;;;;;;10.40;6.90;;;;;;;24.35;51.33;100873.52;105440;1254;62459;-58
2023/09/23 08:11:08;;;;;;;13.60;8.20;;;;;;;24.47;51.32;100873.63;105275;1254;63859;-57
2023/09/23 08:13:36;;;;;;;13.90;8.40;;;;;;;24.59;51.34;100876.01;105539;1254;60418;-56
2023/09/23 08:16:03;;;;;;;13.00;8.40;;;;;;;24.69;51.31;100872.31;105712;1257;64871;-57
2023/09/23 08:18:31;;;;;;;16.60;9.00;;;;;;;24.77;50.46;100875.63;105356;1257;63055;-58
2023/09/23 08:20:59;;;;;;;11.20;7.90;;;;;;;24.83;50.16;100875.48;105265;1254;63693;-57
2023/09/23 08:23:27;;;;;;;11.50;7.80;;;;;;;24.88;49.80;100876.11;105781;1253;60362;-57
2023/09/23 08:25:55;;;;;;;14.20;8.40;;;;;;;24.92;49.86;100876.90;105859;1257;60356;-58
2023/09/23 08:28:23;;;;;;;19.10;8.70;;;;;;;24.99;49.99;100873.63;106100;1257;64917;-58
2023/09/23 08:30:51;;;;;;;14.70;8.60;;;;;;;25.08;49.81;100872.77;105863;1253;61356;-58
2023/09/23 08:33:19;;;;;;;11.70;7.80;;;;;;;25.14;49.57;100870.98;105247;1254;63657;-59
2023/09/23 08:35:48;;;;;;;10.80;7.80;;;;;;;25.19;49.25;100871.89;105260;1254;60538;-57
2023/09/23 08:38:16;;;;;;;13.60;8.30;;;;;;;25.24;49.30;100867.59;105383;1254;62103;-57
2023/09/23 08:40:46;;;;;;;12.10;8.20;;;;;;;25.30;48.93;100868.33;105229;1254;65386;-58
2023/09/23 08:43:14;;;;;;;16.40;8.40;;;;;;;25.34;48.75;100866.46;105342;1255;60617;-58
2023/09/23 08:45:43;;;;;;;11.80;7.80;;;;;;;25.39;48.78;100869.10;104889;1254;503567;-57
2023/09/23 08:50:28;;;;;;;11.80;7.50;;;;;;;25.29;48.91;100866.44;102335;1294;600791;-59
2023/09/23 08:52:55;;;;;;;17.60;8.30;;;;;;;25.48;48.18;100863.23;104482;1269;59832;-55
2023/09/23 08:55:24;;;;;;;12.30;8.00;;;;;;;25.51;47.91;100867.04;104356;1270;59226;-54
2023/09/23 08:57:53;;;;;;;11.00;8.30;;;;;;;25.54;47.86;100863.15;105659;1264;63264;-54
2023/09/23 09:00:20;;;;;;;14.80;8.70;;;;;;;25.55;48.22;100861.69;105704;1259;60348;-54
2023/09/23 09:02:48;;;;;;;12.70;8.40;;;;;;;25.56;48.14;100855.96;104941;1260;242972;-55
2023/09/23 09:05:16;;;;;;;12.60;8.70;;;;;;;25.57;48.28;100854.39;105133;1260;59317;-54
2023/09/23 09:07:44;;;;;;;11.30;8.10;;;;;;;25.60;48.56;100857.54;105304;1260;59368;-55
2023/09/23 09:10:11;;;;;;;13.80;8.40;;;;;;;25.63;48.31;100859.55;105123;1255;63339;-55
2023/09/23 09:12:39;;;;;;;13.30;9.20;;;;;;;25.64;48.14;100856.20;105127;1257;61484;-53
2023/09/23 09:15:07;;;;;;;14.90;9.40;;;;;;;25.65;48.11;100853.30;105269;1256;62429;-53
2023/09/23 09:17:36;;;;;;;17.80;7.90;;;;;;;25.67;47.91;100845.34;105251;1257;59799;-54
2023/09/23 09:20:11;;;;;;;15.40;8.00;;;;;;;25.70;47.92;100840.05;105545;1256;59766;-54
2023/09/23 09:22:39;;;;;;;12.40;8.20;;;;;;;25.74;47.44;100839.87;105184;1255;62937;-54
2023/09/23 09:25:11;;;;;;;14.00;7.80;;;;;;;25.78;47.33;100844.09;105471;1256;61844;-55
2023/09/23 09:27:41;;;;;;;12.00;8.20;;;;;;;25.85;47.70;100845.63;105395;1255;63729;-54
2023/09/23 09:30:11;;;;;;;14.20;7.80;;;;;;;25.90;47.70;100842.81;105442;1257;59663;-46
2023/09/23 09:32:44;;;;;;;12.30;7.60;;;;;;;25.95;47.64;100845.56;105302;1255;59616;-48
2023/09/23 09:35:12;;;;;;;15.60;8.50;;;;;;;26.00;47.40;100847.77;105137;1259;64221;-47
2023/09/23 09:37:45;;;;;;;11.90;8.30;;;;;;;26.04;47.08;100852.83;105290;1255;61371;-48
2023/09/23 09:40:20;;;;;;;9.80;7.70;;;;;;;26.07;47.13;100853.65;105307;1256;62453;-48
2023/09/23 09:42:54;;;;;;;14.50;8.90;;;;;;;26.11;47.08;100854.33;105230;1255;59762;-55
2023/09/23 09:45:23;;;;;;;9.90;7.10;;;;;;;26.17;47.20;100855.50;105906;1256;59628;-55
2023/09/23 09:47:54;;;;;;;14.40;7.40;;;;;;;26.24;47.11;100855.48;105819;1256;64044;-54
2023/09/23 09:50:22;;;;;;;9.30;7.30;;;;;;;26.30;46.78;100853.66;105820;1256;61314;-55
2023/09/23 09:52:50;;;;;;;11.60;7.20;;;;;;;26.35;46.70;100854.10;105847;1257;63729;-53
2023/09/23 09:55:19;;;;;;;11.20;7.40;;;;;;;26.40;47.01;100850.90;105080;1258;60960;-53
2023/09/23 09:57:47;;;;;;;11.20;7.50;;;;;;;26.46;47.12;100852.31;105149;1256;59632;-54
2023/09/23 10:00:34;;;;;;;14.30;8.10;;;;;;;26.52;46.93;100850.59;105177;1257;64604;-54
2023/09/23 10:03:06;;;;;;;10.60;7.10;;;;;;;26.56;46.37;100849.36;105591;1260;60232;-55
2023/09/23 10:05:35;;;;;;;10.00;7.40;;;;;;;26.60;46.02;100846.05;105523;1260;62472;-54
2023/09/23 10:08:15;;;;;;;11.80;7.40;;;;;;;26.65;46.00;100843.60;105587;1260;59564;-54
2023/09/23 10:10:45;;;;;;;10.60;6.60;;;;;;;26.69;45.54;100842.95;105268;1256;59757;-52
2023/09/23 10:13:22;;;;;;;13.50;7.70;;;;;;;26.75;45.43;100843.98;105185;1256;62904;-55
2023/09/23 10:15:50;;;;;;;15.90;8.30;;;;;;;26.79;45.44;100846.04;105276;1256;62070;-45
2023/09/23 10:18:18;;;;;;;13.40;7.20;;;;;;;26.84;45.51;100842.31;105186;1256;63713;-47
2023/09/23 10:20:51;;;;;;;14.20;7.90;;;;;;;26.90;45.40;100839.14;105153;1257;60534;-46
2023/09/23 10:23:19;;;;;;;10.80;7.10;;;;;;;26.97;44.92;100840.71;105092;1256;59762;-46
2023/09/23 10:25:50;;;;;;;13.70;7.60;;;;;;;27.03;45.11;100845.48;105347;1256;64127;-46
2023/09/23 10:28:28;;;;;;;10.90;6.90;;;;;;;27.12;45.09;100848.94;105296;1258;61513;-46
2023/09/23 10:30:59;;;;;;;14.60;7.90;;;;;;;27.19;44.80;100851.02;105177;1260;63730;-46
2023/09/23 10:33:29;;;;;;;10.80;6.60;;;;;;;27.25;44.66;100852.84;105636;1260;61065;-46
2023/09/23 10:35:58;;;;;;;14.60;7.80;;;;;;;27.33;44.58;100846.68;105168;1256;62319;-46
2023/09/23 10:38:34;;;;;;;11.60;7.50;;;;;;;27.39;44.12;100844.83;105321;1253;62970;-55
2023/09/23 10:41:04;;;;;;;11.40;7.50;;;;;;;27.47;43.71;100838.73;105793;1257;72516;-54
2023/09/23 10:43:31;;;;;;;12.80;7.60;;;;;;;27.52;43.62;100833.44;105749;1254;62514;-55
2023/09/23 10:46:01;;;;;;;9.40;6.60;;;;;;;27.59;43.28;100831.65;105799;1258;59714;-53
2023/09/23 10:48:29;;;;;;;11.90;7.10;;;;;;;27.68;43.24;100827.08;106024;1254;60300;-55
2023/09/23 10:50:58;;;;;;;16.20;7.80;;;;;;;27.76;43.29;100824.45;106031;1251;64114;-55
2023/09/23 10:53:27;;;;;;;10.00;6.40;;;;;;;27.83;42.90;100821.23;105544;1253;61364;-52
2023/09/23 10:55:56;;;;;;;11.60;7.40;;;;;;;27.89;42.83;100821.00;106063;1253;63955;-53
2023/09/23 10:58:24;;;;;;;11.30;6.20;;;;;;;27.96;42.27;100818.73;106052;1252;59763;-54
2023/09/23 11:00:52;;;;;;;9.40;6.60;;;;;;;28.01;41.90;100814.58;105628;1253;59785;-54
2023/09/23 11:03:21;;;;;;;9.60;6.90;;;;;;;28.06;42.27;100810.98;105513;1256;64123;-54
2023/09/23 11:05:49;;;;;;;10.60;7.30;;;;;;;28.10;41.89;100812.61;105624;1253;60248;-55
2023/09/23 11:08:20;;;;;;;8.90;6.40;;;;;;;28.14;41.99;100811.47;105297;1258;63936;-55
2023/09/23 11:10:49;;;;;;;11.30;7.40;;;;;;;28.18;41.95;100808.66;106083;1253;59737;-55
2023/09/23 11:13:17;;;;;;;9.30;6.70;;;;;;;28.22;41.61;100803.20;105488;1257;59746;-54
2023/09/23 11:15:45;;;;;;;9.10;6.40;;;;;;;28.25;41.49;100799.12;105490;1253;62997;-56
2023/09/23 11:18:16;;;;;;;12.10;6.30;;;;;;;28.30;40.97;100793.88;105764;1256;61991;-57
2023/09/23 11:20:45;;;;;;;9.90;6.00;;;;;;;28.35;39.97;100794.21;105534;1250;64101;-54